createdAt,value
2023-02-16T00:01:25.273Z,4.66
2023-02-16T00:03:58.521Z,4.65
2023-02-16T00:06:31.864Z,4.65
2023-02-16T00:09:04.114Z,4.64
2023-02-16T00:11:55.578Z,4.63
2023-02-16T00:14:28.442Z,4.67
2023-02-16T00:17:01.238Z,4.64
2023-02-16T00:19:38.151Z,4.64
2023-02-16T00:22:11.458Z,4.63
2023-02-16T00:24:43.671Z,4.62
2023-02-16T00:27:19.267Z,4.62
2023-02-16T00:29:51.901Z,4.61
2023-02-16T00:32:24.138Z,4.59
2023-02-16T00:34:56.337Z,4.57
2023-02-16T00:37:28.478Z,4.53
2023-02-16T00:40:03.874Z,4.50
2023-02-16T00:42:37.273Z,4.46
2023-02-16T00:45:17.381Z,4.44
2023-02-16T00:47:51.390Z,4.48
2023-02-16T00:50:28.733Z,4.44
2023-02-16T00:53:02.872Z,4.44
2023-02-16T00:55:37.776Z,4.45
2023-02-16T00:58:14.874Z,4.49
2023-02-16T01:00:50.611Z,4.52
2023-02-16T01:03:28.080Z,4.50
2023-02-16T01:06:14.252Z,4.49
2023-02-16T01:09:04.339Z,4.48
2023-02-16T01:11:38.066Z,4.48
2023-02-16T01:14:13.769Z,4.46
2023-02-16T01:16:45.991Z,4.40
2023-02-16T01:19:18.486Z,4.38
2023-02-16T01:21:52.267Z,4.42
2023-02-16T01:24:24.745Z,4.42
2023-02-16T01:26:56.942Z,4.45
2023-02-16T01:29:29.436Z,4.47
2023-02-16T01:32:01.734Z,4.45
2023-02-16T01:34:34.086Z,4.43
2023-02-16T01:37:06.286Z,4.44
2023-02-16T01:39:38.471Z,4.43
2023-02-16T01:42:33.243Z,4.42
2023-02-16T01:45:10.965Z,4.38
2023-02-16T01:47:49.076Z,4.35
2023-02-16T01:50:24.034Z,4.35
2023-02-16T01:52:58.140Z,4.40
2023-02-16T01:55:33.929Z,4.39
2023-02-16T01:58:14.183Z,4.38
2023-02-16T02:01:23.255Z,4.38
2023-02-16T02:04:13.304Z,4.37
2023-02-16T02:06:45.779Z,4.34
2023-02-16T02:09:23.944Z,4.33
2023-02-16T02:12:03.126Z,4.29
2023-02-16T02:14:39.537Z,4.25
2023-02-16T02:17:17.967Z,4.23
2023-02-16T02:19:57.751Z,4.20
2023-02-16T02:23:25.066Z,4.17
2023-02-16T02:26:45.452Z,4.20
2023-02-16T02:29:32.172Z,4.19
2023-02-16T02:32:13.589Z,4.17
2023-02-16T02:34:57.707Z,4.14
2023-02-16T02:37:39.214Z,4.12
2023-02-16T02:40:24.190Z,4.08
2023-02-16T02:43:06.114Z,4.11
2023-02-16T02:45:45.212Z,4.11
2023-02-16T02:48:17.507Z,4.12
2023-02-16T02:51:11.648Z,4.11
2023-02-16T02:53:48.911Z,4.08
2023-02-16T02:56:40.787Z,4.06
2023-02-16T02:59:31.105Z,4.03
2023-02-16T03:02:04.248Z,4.06
2023-02-16T03:04:37.027Z,4.06
2023-02-16T03:07:11.168Z,4.07
2023-02-16T03:09:43.538Z,4.11
2023-02-16T03:12:39.082Z,4.14
2023-02-16T03:15:12.533Z,4.14
2023-02-16T03:18:02.980Z,4.14
2023-02-16T03:20:53.098Z,4.15
2023-02-16T03:23:43.407Z,4.15
2023-02-16T03:26:37.184Z,4.13
2023-02-16T03:29:22.659Z,4.10
2023-02-16T03:31:57.357Z,4.06
2023-02-16T03:34:31.916Z,4.01
2023-02-16T03:37:04.824Z,4.00
2023-02-16T03:39:57.832Z,4.06
2023-02-16T03:42:30.116Z,4.03
2023-02-16T03:45:02.680Z,4.05
2023-02-16T03:47:34.747Z,4.08
2023-02-16T03:50:08.391Z,4.11
2023-02-16T03:52:40.617Z,4.09
2023-02-16T03:55:12.827Z,4.09
2023-02-16T03:57:45.029Z,4.07
2023-02-16T04:00:19.708Z,4.04
2023-02-16T04:02:51.977Z,4.02
2023-02-16T04:05:24.210Z,3.99
2023-02-16T04:07:56.347Z,3.94
2023-02-16T04:10:28.677Z,3.89
2023-02-16T04:13:01.067Z,3.93
2023-02-16T04:15:34.192Z,3.90
2023-02-16T04:18:06.888Z,3.89
2023-02-16T04:20:39.107Z,3.91
2023-02-16T04:23:11.377Z,3.90
2023-02-16T04:25:43.633Z,3.86
2023-02-16T04:28:15.851Z,3.83
2023-02-16T04:30:48.101Z,3.81
2023-02-16T04:33:20.383Z,3.80
2023-02-16T04:35:52.446Z,3.80
2023-02-16T04:38:26.227Z,3.78
2023-02-16T04:40:58.419Z,3.75
2023-02-16T04:43:30.617Z,3.72
2023-02-16T04:46:02.828Z,3.72
2023-02-16T04:48:35.051Z,3.71
2023-02-16T04:51:08.307Z,3.70
2023-02-16T04:53:40.516Z,3.71
2023-02-16T04:56:14.153Z,3.71
2023-02-16T04:58:46.519Z,3.68
2023-02-16T05:01:24.097Z,3.68
2023-02-16T05:03:56.873Z,3.66
2023-02-16T05:06:29.244Z,3.66
2023-02-16T05:09:01.410Z,3.66
2023-02-16T05:11:51.392Z,3.64
2023-02-16T05:14:46.099Z,3.60
2023-02-16T05:17:21.076Z,3.58
2023-02-16T05:19:55.268Z,3.60
2023-02-16T05:22:32.487Z,3.59
2023-02-16T05:25:05.527Z,3.58
2023-02-16T05:27:38.176Z,3.58
2023-02-16T05:30:12.738Z,3.58
2023-02-16T05:32:44.863Z,3.57
2023-02-16T05:35:17.220Z,3.56
2023-02-16T05:37:49.334Z,3.52
2023-02-16T05:40:21.856Z,3.50
2023-02-16T05:42:56.902Z,3.45
2023-02-16T05:45:27.446Z,3.41
2023-02-16T05:47:59.464Z,3.37
2023-02-16T05:50:31.673Z,3.33
2023-02-16T05:53:04.499Z,3.31
2023-02-16T05:55:36.816Z,3.35
2023-02-16T05:58:09.111Z,3.34
2023-02-16T06:00:41.204Z,3.36
2023-02-16T06:03:13.294Z,3.38
2023-02-16T06:05:45.515Z,3.41
2023-02-16T06:08:17.732Z,3.43
2023-02-16T06:10:52.721Z,3.37
2023-02-16T06:13:23.759Z,3.32
2023-02-16T06:15:57.950Z,3.25
2023-02-16T06:18:30.256Z,3.22
2023-02-16T06:21:02.840Z,3.23
2023-02-16T06:23:35.097Z,3.23
2023-02-16T06:26:07.472Z,3.20
2023-02-16T06:28:39.586Z,3.15
2023-02-16T06:31:12.482Z,3.18
2023-02-16T06:33:44.765Z,3.24
2023-02-16T06:36:17.170Z,3.27
2023-02-16T06:38:49.639Z,3.30
2023-02-16T06:41:33.739Z,3.33
2023-02-16T06:44:07.927Z,3.38
2023-02-16T06:46:40.332Z,3.42
2023-02-16T06:49:15.921Z,3.42
2023-02-16T06:51:49.145Z,3.41
2023-02-16T06:54:21.745Z,3.41
2023-02-16T06:56:54.172Z,3.38
2023-02-16T06:59:26.415Z,3.34
2023-02-16T07:01:58.542Z,3.33
2023-02-16T07:04:31.186Z,3.32
2023-02-16T07:07:03.317Z,3.32
2023-02-16T07:09:36.931Z,3.39
2023-02-16T07:12:09.659Z,3.39
2023-02-16T07:14:44.028Z,3.37
2023-02-16T07:17:16.968Z,3.36
2023-02-16T07:19:49.162Z,3.36
2023-02-16T07:22:21.334Z,3.36
2023-02-16T07:24:56.226Z,3.37
2023-02-16T07:27:28.706Z,3.37
2023-02-16T07:30:00.958Z,3.34
2023-02-16T07:32:33.741Z,3.29
2023-02-16T07:35:06.212Z,3.27
2023-02-16T07:37:38.460Z,3.26
2023-02-16T07:40:13.807Z,3.24
2023-02-16T07:42:45.969Z,3.28
2023-02-16T07:45:18.855Z,3.28
2023-02-16T07:47:50.895Z,3.26
2023-02-16T07:50:23.338Z,3.25
2023-02-16T07:52:55.562Z,3.28
2023-02-16T07:55:27.712Z,3.30
2023-02-16T07:58:00.239Z,3.27
2023-02-16T08:00:32.381Z,3.29
2023-02-16T08:03:05.106Z,3.29
2023-02-16T08:05:38.299Z,3.26
2023-02-16T08:08:10.491Z,3.23
2023-02-16T08:10:42.684Z,3.21
2023-02-16T08:13:14.957Z,3.15
2023-02-16T08:15:47.485Z,3.08
2023-02-16T08:18:19.783Z,3.08
2023-02-16T08:21:03.839Z,3.17
2023-02-16T08:23:36.281Z,3.16
2023-02-16T08:26:12.505Z,3.16
2023-02-16T08:28:46.180Z,3.18
2023-02-16T08:31:20.373Z,3.18
2023-02-16T08:33:53.775Z,3.17
2023-02-16T08:36:29.621Z,3.17
2023-02-16T08:39:04.277Z,3.21
2023-02-16T08:41:39.000Z,3.21
2023-02-16T08:44:12.911Z,3.21
2023-02-16T08:46:46.692Z,3.19
2023-02-16T08:49:20.240Z,3.20
2023-02-16T08:51:54.904Z,3.21
2023-02-16T08:54:30.564Z,3.19
2023-02-16T08:57:03.507Z,3.22
2023-02-16T08:59:35.953Z,3.21
2023-02-16T09:02:08.393Z,3.19
2023-02-16T09:04:41.101Z,3.23
2023-02-16T09:07:13.932Z,3.27
2023-02-16T09:09:46.190Z,3.34
2023-02-16T09:12:18.373Z,3.34
2023-02-16T09:14:50.586Z,3.36
2023-02-16T09:17:22.709Z,3.38
2023-02-16T09:19:54.856Z,3.38
2023-02-16T09:22:27.176Z,3.36
2023-02-16T09:24:59.350Z,3.34
2023-02-16T09:27:31.698Z,3.32
2023-02-16T09:30:04.019Z,3.36
2023-02-16T09:32:37.024Z,3.48
2023-02-16T09:35:10.736Z,3.55
2023-02-16T09:37:42.921Z,3.56
2023-02-16T09:40:18.109Z,3.57
2023-02-16T09:43:04.824Z,3.62
2023-02-16T09:45:44.205Z,3.66
2023-02-16T09:48:23.084Z,3.67
2023-02-16T09:50:56.966Z,3.65
2023-02-16T09:53:36.367Z,3.62
2023-02-16T09:56:20.270Z,3.59
2023-02-16T09:58:57.490Z,3.58
2023-02-16T10:01:35.108Z,3.60
2023-02-16T10:04:28.627Z,3.63
2023-02-16T10:07:13.388Z,3.67
2023-02-16T10:09:51.294Z,3.68
2023-02-16T10:12:27.174Z,3.71
2023-02-16T10:15:04.512Z,3.72
2023-02-16T10:17:43.263Z,3.73
2023-02-16T10:20:19.571Z,3.74
2023-02-16T10:22:56.402Z,3.75
2023-02-16T10:25:34.123Z,3.78
2023-02-16T10:28:16.312Z,3.80
2023-02-16T10:30:55.334Z,3.80
2023-02-16T10:33:38.752Z,3.79
2023-02-16T10:36:23.813Z,3.77
2023-02-16T10:39:04.070Z,3.79
2023-02-16T10:41:42.203Z,3.84
2023-02-16T10:44:20.414Z,3.87
2023-02-16T10:46:58.650Z,3.89
2023-02-16T10:49:33.024Z,3.93
2023-02-16T10:52:08.953Z,4.00
2023-02-16T10:54:42.081Z,4.04
2023-02-16T10:57:26.936Z,4.05
2023-02-16T11:00:01.084Z,4.07
2023-02-16T11:02:39.907Z,4.06
2023-02-16T11:05:34.707Z,4.08
2023-02-16T11:08:11.428Z,4.13
2023-02-16T11:10:49.141Z,4.18
2023-02-16T11:13:34.105Z,4.23
2023-02-16T11:16:12.048Z,4.37
2023-02-16T11:18:49.802Z,4.43
2023-02-16T11:21:22.042Z,4.48
2023-02-16T11:24:02.291Z,4.58
2023-02-16T11:26:34.469Z,4.71
2023-02-16T11:29:21.625Z,4.82
2023-02-16T11:31:54.056Z,4.87
2023-02-16T11:34:33.222Z,4.90
2023-02-16T11:37:10.196Z,4.94
2023-02-16T11:39:50.968Z,4.96
2023-02-16T11:42:30.766Z,5.01
2023-02-16T11:45:05.822Z,5.03
2023-02-16T11:47:41.578Z,5.05
2023-02-16T11:50:25.863Z,5.10
2023-02-16T11:53:14.934Z,5.21
2023-02-16T11:55:49.764Z,5.32
2023-02-16T11:58:25.380Z,5.39
2023-02-16T12:01:08.739Z,5.49
2023-02-16T12:03:59.911Z,5.59
2023-02-16T12:06:44.767Z,5.70
2023-02-16T12:09:27.085Z,5.83
2023-02-16T12:12:07.549Z,5.93
2023-02-16T12:14:50.878Z,5.99
2023-02-16T12:17:48.878Z,6.04
2023-02-16T12:20:35.999Z,6.09
2023-02-16T12:23:23.985Z,6.12
2023-02-16T12:26:08.152Z,6.20
2023-02-16T12:28:49.414Z,6.34
2023-02-16T12:31:30.574Z,6.42
2023-02-16T12:34:13.280Z,6.48
2023-02-16T12:36:59.249Z,6.51
2023-02-16T12:39:42.654Z,6.50
2023-02-16T12:42:37.018Z,6.50
2023-02-16T12:45:15.153Z,6.50
2023-02-16T12:47:52.621Z,6.52
2023-02-16T12:50:27.759Z,6.52
2023-02-16T12:53:06.086Z,6.55
2023-02-16T12:55:44.251Z,6.61
2023-02-16T12:58:23.741Z,6.74
2023-02-16T13:01:01.127Z,6.84
2023-02-16T13:03:39.525Z,6.90
2023-02-16T13:06:22.598Z,6.94
2023-02-16T13:09:02.020Z,6.93
2023-02-16T13:11:39.590Z,6.93
2023-02-16T13:14:19.219Z,6.90
2023-02-16T13:16:56.580Z,6.87
2023-02-16T13:19:29.153Z,6.84
2023-02-16T13:22:27.864Z,6.82
2023-02-16T13:25:21.054Z,6.77
2023-02-16T13:28:06.571Z,6.73
2023-02-16T13:31:13.302Z,6.74
2023-02-16T13:34:01.838Z,6.79
2023-02-16T13:36:49.213Z,6.80
2023-02-16T13:39:42.629Z,6.84
2023-02-16T13:42:35.353Z,6.92
2023-02-16T13:45:16.670Z,6.99
2023-02-16T13:47:48.984Z,7.03
2023-02-16T13:50:31.256Z,7.07
2023-02-16T13:53:18.893Z,7.09
2023-02-16T13:56:11.645Z,7.09
2023-02-16T13:58:44.022Z,7.09
2023-02-16T14:01:39.143Z,7.09
2023-02-16T14:04:36.282Z,7.12
2023-02-16T14:07:38.092Z,7.18
2023-02-16T14:10:15.840Z,7.19
2023-02-16T14:12:50.058Z,7.19
2023-02-16T14:15:23.378Z,7.20
2023-02-16T14:17:55.753Z,7.16
2023-02-16T14:20:32.777Z,7.14
2023-02-16T14:23:07.282Z,7.10
2023-02-16T14:25:41.682Z,7.06
2023-02-16T14:28:50.554Z,6.99
2023-02-16T14:31:25.537Z,6.92
2023-02-16T14:34:06.541Z,6.88
2023-02-16T14:37:13.039Z,6.91
2023-02-16T14:40:06.525Z,6.89
2023-02-16T14:42:45.466Z,6.87
2023-02-16T14:45:52.196Z,6.86
2023-02-16T14:48:58.760Z,6.82
2023-02-16T14:51:57.834Z,6.81
2023-02-16T14:55:03.287Z,6.78
2023-02-16T14:57:41.984Z,6.76
2023-02-16T15:00:23.265Z,6.71
2023-02-16T15:03:02.010Z,6.68
2023-02-16T15:05:38.046Z,6.70
2023-02-16T15:08:17.965Z,6.70
2023-02-16T15:10:54.210Z,6.69
2023-02-16T15:13:28.691Z,6.69
2023-02-16T15:16:05.622Z,6.65
2023-02-16T15:18:43.629Z,6.61
2023-02-16T15:21:22.214Z,6.58
2023-02-16T15:23:56.541Z,6.56
2023-02-16T15:26:31.187Z,6.55
2023-02-16T15:29:13.560Z,6.52
2023-02-16T15:31:46.831Z,6.49
2023-02-16T15:34:33.357Z,6.49
2023-02-16T15:37:24.166Z,6.52
2023-02-16T15:40:23.126Z,6.53
2023-02-16T15:42:50.712Z,6.51
2023-02-16T15:45:32.713Z,6.50
2023-02-16T15:48:22.509Z,6.50
2023-02-16T15:50:56.777Z,6.44
2023-02-16T15:53:37.464Z,6.42
2023-02-16T15:56:29.681Z,6.38
2023-02-16T15:59:04.333Z,6.32
2023-02-16T16:01:38.744Z,6.27
2023-02-16T16:04:22.383Z,6.23
2023-02-16T16:06:56.003Z,6.17
2023-02-16T16:09:30.965Z,6.11
2023-02-16T16:12:04.544Z,6.06
2023-02-16T16:14:41.019Z,6.06
2023-02-16T16:17:18.274Z,6.03
2023-02-16T16:19:51.262Z,6.00
2023-02-16T16:22:36.485Z,5.98
2023-02-16T16:25:38.099Z,5.97
2023-02-16T16:28:13.671Z,5.93
2023-02-16T16:30:46.783Z,5.90
2023-02-16T16:33:19.141Z,5.87
2023-02-16T16:35:52.687Z,5.84
2023-02-16T16:38:27.623Z,5.81
2023-02-16T16:40:59.329Z,5.77
2023-02-16T16:43:33.576Z,5.69
2023-02-16T16:46:20.916Z,5.63
2023-02-16T16:48:56.639Z,5.61
2023-02-16T16:51:41.511Z,5.64
2023-02-16T16:54:31.652Z,5.64
2023-02-16T16:57:10.756Z,5.63
2023-02-16T16:59:42.929Z,5.65
2023-02-16T17:02:15.118Z,5.65
2023-02-16T17:04:47.746Z,5.68
2023-02-16T17:07:19.951Z,5.65
2023-02-16T17:09:52.156Z,5.61
2023-02-16T17:12:26.255Z,5.59
2023-02-16T17:14:58.386Z,5.57
2023-02-16T17:17:32.305Z,5.55
2023-02-16T17:20:04.776Z,5.51
2023-02-16T17:22:37.220Z,5.46
2023-02-16T17:25:10.415Z,5.44
2023-02-16T17:27:42.657Z,5.48
2023-02-16T17:30:17.452Z,5.47
2023-02-16T17:32:49.590Z,5.46
2023-02-16T17:35:21.867Z,5.45
2023-02-16T17:37:54.067Z,5.45
2023-02-16T17:40:27.439Z,5.40
2023-02-16T17:42:59.795Z,5.38
2023-02-16T17:45:32.174Z,5.37
2023-02-16T17:48:04.332Z,5.34
2023-02-16T17:50:36.623Z,5.30
2023-02-16T17:53:14.175Z,5.25
2023-02-16T17:55:47.902Z,5.21
2023-02-16T17:58:20.735Z,5.19
2023-02-16T18:00:53.424Z,5.25
2023-02-16T18:03:26.330Z,5.24
2023-02-16T18:05:58.645Z,5.24
2023-02-16T18:08:30.970Z,5.25
2023-02-16T18:11:04.850Z,5.26
2023-02-16T18:13:37.005Z,5.22
2023-02-16T18:16:14.259Z,5.21
2023-02-16T18:18:46.604Z,5.19
2023-02-16T18:21:19.881Z,5.16
2023-02-16T18:23:52.558Z,5.13
2023-02-16T18:26:24.776Z,5.11
2023-02-16T18:28:56.916Z,5.08
2023-02-16T18:31:29.162Z,5.05
2023-02-16T18:34:01.409Z,5.11
2023-02-16T18:36:33.552Z,5.11
2023-02-16T18:39:06.313Z,5.11
2023-02-16T18:41:38.818Z,5.13
2023-02-16T18:44:12.083Z,5.15
2023-02-16T18:46:44.390Z,5.17
2023-02-16T18:49:16.854Z,5.14
2023-02-16T18:51:49.047Z,5.11
2023-02-16T18:54:21.371Z,5.09
2023-02-16T18:56:53.511Z,5.07
2023-02-16T18:59:25.638Z,5.02
2023-02-16T19:01:59.914Z,4.99
2023-02-16T19:04:32.182Z,4.96
2023-02-16T19:07:04.697Z,4.96
2023-02-16T19:09:36.894Z,5.02
2023-02-16T19:12:09.590Z,5.04
2023-02-16T19:14:41.838Z,5.05
2023-02-16T19:17:14.005Z,5.07
2023-02-16T19:19:46.200Z,5.08
2023-02-16T19:22:18.375Z,5.06
2023-02-16T19:24:50.546Z,5.06
2023-02-16T19:27:22.653Z,5.05
2023-02-16T19:29:54.890Z,5.03
2023-02-16T19:32:27.016Z,5.00
2023-02-16T19:34:59.146Z,4.99
2023-02-16T19:37:31.322Z,4.95
2023-02-16T19:40:03.540Z,4.93
2023-02-16T19:42:35.897Z,4.94
2023-02-16T19:45:11.010Z,5.01
2023-02-16T19:47:41.506Z,5.02
2023-02-16T19:50:14.010Z,5.01
2023-02-16T19:52:46.232Z,5.05
2023-02-16T19:55:18.522Z,5.08
2023-02-16T19:57:50.772Z,5.11
2023-02-16T20:00:23.388Z,5.09
2023-02-16T20:02:55.769Z,5.07
2023-02-16T20:05:28.770Z,5.05
2023-02-16T20:08:01.051Z,5.04
2023-02-16T20:10:33.961Z,5.03
2023-02-16T20:13:06.257Z,5.01
2023-02-16T20:15:38.596Z,4.98
2023-02-16T20:18:10.801Z,4.98
2023-02-16T20:20:42.921Z,5.03
2023-02-16T20:23:15.323Z,5.04
2023-02-16T20:25:47.587Z,5.04
2023-02-16T20:28:19.833Z,5.06
2023-02-16T20:30:52.447Z,5.06
2023-02-16T20:33:24.657Z,5.02
2023-02-16T20:35:56.873Z,5.00
2023-02-16T20:38:29.070Z,5.00
2023-02-16T20:41:01.340Z,4.97
2023-02-16T20:43:34.303Z,4.95
2023-02-16T20:46:08.488Z,4.92
2023-02-16T20:48:40.858Z,4.89
2023-02-16T20:51:15.566Z,4.88
2023-02-16T20:53:47.807Z,4.93
2023-02-16T20:56:22.851Z,4.94
2023-02-16T20:58:57.319Z,4.95
2023-02-16T21:01:31.431Z,4.96
2023-02-16T21:04:04.418Z,4.97
2023-02-16T21:06:37.253Z,5.00
2023-02-16T21:09:10.117Z,4.98
2023-02-16T21:11:43.024Z,4.98
2023-02-16T21:14:15.419Z,5.00
2023-02-16T21:16:47.511Z,4.99
2023-02-16T21:19:23.371Z,4.99
2023-02-16T21:21:56.379Z,4.98
2023-02-16T21:24:28.809Z,4.97
2023-02-16T21:27:01.077Z,4.99
2023-02-16T21:29:33.448Z,5.05
2023-02-16T21:32:06.657Z,5.07
2023-02-16T21:34:39.018Z,5.10
2023-02-16T21:37:11.210Z,5.14
2023-02-16T21:40:01.095Z,5.18
2023-02-16T21:42:35.769Z,5.21
2023-02-16T21:45:15.113Z,5.22
2023-02-16T21:48:05.935Z,5.23
2023-02-16T21:50:40.126Z,5.24
2023-02-16T21:53:12.704Z,5.24
2023-02-16T21:56:03.116Z,5.23
2023-02-16T21:58:36.754Z,5.24
2023-02-16T22:01:09.063Z,5.30
2023-02-16T22:03:41.787Z,5.32
2023-02-16T22:06:13.972Z,5.33
2023-02-16T22:08:46.118Z,5.37
2023-02-16T22:11:18.438Z,5.41
2023-02-16T22:13:53.789Z,5.46
2023-02-16T22:16:27.357Z,5.47
2023-02-16T22:19:01.225Z,5.49
2023-02-16T22:21:36.152Z,5.49
2023-02-16T22:24:07.514Z,5.49
2023-02-16T22:26:39.820Z,5.48
2023-02-16T22:29:12.654Z,5.45
2023-02-16T22:31:48.231Z,5.45
2023-02-16T22:34:22.627Z,5.45
2023-02-16T22:36:54.947Z,5.51
2023-02-16T22:39:27.049Z,5.51
2023-02-16T22:41:59.261Z,5.54
2023-02-16T22:44:31.366Z,5.58
2023-02-16T22:47:03.806Z,5.61
2023-02-16T22:49:36.023Z,5.63
2023-02-16T22:52:08.730Z,5.64
2023-02-16T22:54:40.985Z,5.64
2023-02-16T22:57:13.323Z,5.65
2023-02-16T22:59:45.543Z,5.64
2023-02-16T23:02:17.713Z,5.62
2023-02-16T23:04:49.905Z,5.61
2023-02-16T23:07:22.177Z,5.59
2023-02-16T23:09:54.443Z,5.63
2023-02-16T23:12:26.715Z,5.62
2023-02-16T23:14:58.804Z,5.60
2023-02-16T23:17:31.310Z,5.60
2023-02-16T23:20:04.884Z,5.62
2023-02-16T23:22:37.075Z,5.62
2023-02-16T23:25:27.368Z,5.58
2023-02-16T23:27:59.664Z,5.55
2023-02-16T23:30:32.433Z,5.53
2023-02-16T23:33:04.847Z,5.53
2023-02-16T23:35:38.385Z,5.53
2023-02-16T23:38:12.773Z,5.51
2023-02-16T23:40:45.217Z,5.50
2023-02-16T23:43:17.438Z,5.56
2023-02-16T23:45:49.739Z,5.57
2023-02-16T23:48:22.233Z,5.58
2023-02-16T23:50:55.036Z,5.59
2023-02-16T23:53:29.024Z,5.60
2023-02-16T23:56:02.893Z,5.61
2023-02-16T23:58:37.480Z,5.57
